createdAt,value
2019-05-10T00:04:20.091Z,27.47
2019-05-10T00:08:49.998Z,35.20
2019-05-10T00:13:04.175Z,26.37
2019-05-10T00:17:23.735Z,28.37
2019-05-10T00:21:31.341Z,24.83
2019-05-10T00:25:38.397Z,26.03
2019-05-10T00:29:46.045Z,25.00
2019-05-10T00:33:51.939Z,24.97
2019-05-10T00:37:57.416Z,25.90
2019-05-10T00:42:04.169Z,25.03
2019-05-10T00:46:10.027Z,26.53
2019-05-10T00:50:16.408Z,28.63
2019-05-10T00:54:22.351Z,25.93
2019-05-10T00:58:27.962Z,30.20
2019-05-10T01:02:33.520Z,24.97
2019-05-10T01:06:42.436Z,32.63
2019-05-10T01:10:49.770Z,27.50
2019-05-10T01:14:55.737Z,30.63
2019-05-10T01:19:02.150Z,31.10
2019-05-10T01:23:07.950Z,28.40
2019-05-10T01:27:13.505Z,31.17
2019-05-10T01:31:19.851Z,29.23
2019-05-10T01:35:25.793Z,30.93
2019-05-10T01:39:32.428Z,34.77
2019-05-10T01:43:37.987Z,32.03
2019-05-10T01:47:45.190Z,31.70
2019-05-10T01:51:51.222Z,36.17
2019-05-10T01:55:57.751Z,33.17
2019-05-10T02:00:04.994Z,30.70
2019-05-10T02:04:11.267Z,30.83
2019-05-10T02:08:17.496Z,34.13
2019-05-10T02:12:27.382Z,34.63
2019-05-10T02:16:33.701Z,31.40
2019-05-10T02:20:39.978Z,35.23
2019-05-10T02:24:45.868Z,34.67
2019-05-10T02:28:52.843Z,39.27
2019-05-10T02:32:58.924Z,34.17
2019-05-10T02:37:25.579Z,31.00
2019-05-10T02:41:31.618Z,32.50
2019-05-10T02:45:38.091Z,47.20
2019-05-10T02:49:48.136Z,33.30
2019-05-10T02:53:53.939Z,36.47
2019-05-10T02:57:59.711Z,42.73
2019-05-10T03:02:08.599Z,35.30
2019-05-10T03:06:18.300Z,40.43
2019-05-10T03:10:25.037Z,36.77
2019-05-10T03:14:32.947Z,38.63
2019-05-10T03:18:42.315Z,34.77
2019-05-10T03:22:48.718Z,35.87
2019-05-10T03:26:55.156Z,39.20
2019-05-10T03:31:01.468Z,34.67
2019-05-10T03:35:09.544Z,36.40
2019-05-10T03:39:15.234Z,35.33
2019-05-10T03:43:21.784Z,34.13
2019-05-10T03:47:28.921Z,37.00
2019-05-10T03:51:35.297Z,33.03
2019-05-10T03:55:40.984Z,37.17
2019-05-10T03:59:47.806Z,39.73
2019-05-10T04:03:53.492Z,38.73
2019-05-10T04:07:59.734Z,37.30
2019-05-10T04:12:05.495Z,42.03
2019-05-10T04:16:15.765Z,41.13
2019-05-10T04:20:21.837Z,43.20
2019-05-10T04:24:28.559Z,38.17
2019-05-10T04:28:34.730Z,44.30
2019-05-10T04:32:40.917Z,39.70
2019-05-10T04:36:47.656Z,43.10
2019-05-10T04:40:55.363Z,44.57
2019-05-10T04:45:01.231Z,47.00
2019-05-10T04:49:08.071Z,48.63
2019-05-10T04:53:15.647Z,57.50
2019-05-10T04:57:22.763Z,51.50
2019-05-10T05:01:29.167Z,53.10
2019-05-10T05:05:55.152Z,65.77
2019-05-10T05:10:00.980Z,49.17
2019-05-10T05:14:09.520Z,48.47
2019-05-10T05:18:15.868Z,53.60
2019-05-10T05:22:22.259Z,49.70
2019-05-10T05:26:28.950Z,51.40
2019-05-10T05:30:38.847Z,51.17
2019-05-10T05:34:45.740Z,51.77
2019-05-10T05:38:51.975Z,51.10
2019-05-10T05:43:02.494Z,54.10
2019-05-10T05:47:07.370Z,53.10
2019-05-10T05:51:12.652Z,49.87
2019-05-10T05:55:22.810Z,49.70
2019-05-10T05:59:27.179Z,50.67
2019-05-10T06:03:33.269Z,55.57
2019-05-10T06:07:39.499Z,57.03
2019-05-10T06:11:47.114Z,53.67
2019-05-10T06:15:54.055Z,53.50
2019-05-10T06:20:05.886Z,57.87
2019-05-10T06:24:13.231Z,57.67
2019-05-10T06:28:28.771Z,56.07
2019-05-10T06:32:27.966Z,55.10
2019-05-10T06:36:35.678Z,52.20
2019-05-10T06:40:46.822Z,55.50
2019-05-10T06:44:49.138Z,54.07
2019-05-10T06:48:55.447Z,51.37
2019-05-10T06:53:07.602Z,46.17
2019-05-10T06:57:11.115Z,46.37
2019-05-10T07:01:17.716Z,48.33
2019-05-10T07:05:23.384Z,47.67
2019-05-10T07:09:59.265Z,38.47
2019-05-10T07:13:40.469Z,37.27
2019-05-10T07:17:47.875Z,45.60
2019-05-10T07:21:54.028Z,37.97
2019-05-10T07:25:59.637Z,39.07
2019-05-10T07:30:07.734Z,32.37
2019-05-10T07:34:17.465Z,40.50
2019-05-10T07:38:23.883Z,33.50
2019-05-10T07:42:31.443Z,36.93
2019-05-10T07:46:40.012Z,36.47
2019-05-10T07:50:49.295Z,30.37
2019-05-10T07:54:52.622Z,26.13
2019-05-10T07:59:00.702Z,31.00
2019-05-10T08:03:15.826Z,33.03
2019-05-10T08:07:14.500Z,35.67
2019-05-10T08:11:39.670Z,33.40
2019-05-10T08:15:48.937Z,30.70
2019-05-10T08:19:53.988Z,25.87
2019-05-10T08:24:07.187Z,22.93
2019-05-10T08:28:09.063Z,23.67
2019-05-10T08:32:19.258Z,27.10
2019-05-10T08:36:23.696Z,24.47
2019-05-10T08:40:35.113Z,24.67
2019-05-10T08:44:38.950Z,22.20
2019-05-10T08:48:50.350Z,16.17
2019-05-10T08:52:56.913Z,18.37
2019-05-10T08:57:05.277Z,11.47
2019-05-10T09:01:20.584Z,16.87
2019-05-10T09:05:22.646Z,19.27
2019-05-10T09:09:25.821Z,20.60
2019-05-10T09:13:37.129Z,24.20
2019-05-10T09:17:42.774Z,18.83
2019-05-10T09:21:52.821Z,19.13
2019-05-10T09:26:03.632Z,19.17
2019-05-10T09:30:13.044Z,20.13
2019-05-10T09:34:17.336Z,20.70
2019-05-10T09:38:23.810Z,21.13
2019-05-10T09:42:35.047Z,18.00
2019-05-10T09:46:42.025Z,19.53
2019-05-10T09:50:47.768Z,20.43
2019-05-10T09:54:56.984Z,23.23
2019-05-10T09:59:02.828Z,22.40
2019-05-10T10:03:12.558Z,18.60
2019-05-10T10:07:18.953Z,19.67
2019-05-10T10:11:27.806Z,19.73
2019-05-10T10:15:34.377Z,24.13
2019-05-10T10:19:40.825Z,22.50
2019-05-10T10:23:46.825Z,21.17
2019-05-10T10:27:53.989Z,28.73
2019-05-10T10:31:59.466Z,24.80
2019-05-10T10:36:08.210Z,21.77
2019-05-10T10:40:18.226Z,22.30
2019-05-10T10:44:23.844Z,21.10
2019-05-10T10:48:29.667Z,23.77
2019-05-10T10:52:37.649Z,27.27
2019-05-10T10:56:48.090Z,26.63
2019-05-10T11:00:54.657Z,25.57
2019-05-10T11:05:00.112Z,24.50
2019-05-10T11:09:08.367Z,24.70
2019-05-10T11:13:20.276Z,24.90
2019-05-10T11:17:22.236Z,28.20
2019-05-10T11:21:28.819Z,43.53
2019-05-10T11:25:35.816Z,42.33
2019-05-10T11:29:43.715Z,43.50
2019-05-10T11:33:53.632Z,47.03
2019-05-10T11:37:57.346Z,55.17
2019-05-10T11:42:07.088Z,57.33
2019-05-10T11:46:11.715Z,55.83
2019-05-10T11:50:28.816Z,50.80
2019-05-10T11:54:25.596Z,49.53
2019-05-10T11:58:37.552Z,48.23
2019-05-10T12:03:00.909Z,45.23
2019-05-10T12:06:50.253Z,50.80
2019-05-10T12:11:07.340Z,51.83
2019-05-10T12:15:04.304Z,52.23
2019-05-10T12:19:19.805Z,53.73
2019-05-10T12:23:30.118Z,53.13
2019-05-10T12:27:34.868Z,52.43
2019-05-10T12:31:35.637Z,49.67
2019-05-10T12:35:47.101Z,49.17
2019-05-10T12:39:52.909Z,49.77
2019-05-10T12:44:03.332Z,46.63
2019-05-10T12:48:05.701Z,47.47
2019-05-10T12:52:14.161Z,48.33
2019-05-10T12:56:21.695Z,46.97
2019-05-10T13:00:27.946Z,44.57
2019-05-10T13:04:40.670Z,41.33
2019-05-10T13:08:42.167Z,44.87
2019-05-10T13:12:49.859Z,40.53
2019-05-10T13:16:56.010Z,44.67
2019-05-10T13:21:01.825Z,45.47
2019-05-10T13:25:08.265Z,40.90
2019-05-10T13:29:14.675Z,44.30
2019-05-10T13:33:28.795Z,41.70
2019-05-10T13:37:30.042Z,46.47
2019-05-10T13:41:35.713Z,46.37
2019-05-10T13:45:42.298Z,46.23
2019-05-10T13:49:48.895Z,39.73
2019-05-10T13:53:59.063Z,38.93
2019-05-10T13:58:01.916Z,38.17
2019-05-10T14:02:08.896Z,41.53
2019-05-10T14:06:15.119Z,43.07
2019-05-10T14:10:23.218Z,41.90
2019-05-10T14:14:28.271Z,34.77
2019-05-10T14:18:34.904Z,39.20
2019-05-10T14:22:41.152Z,41.30
2019-05-10T14:26:51.559Z,42.00
2019-05-10T14:30:57.419Z,40.87
2019-05-10T14:35:04.755Z,35.73
2019-05-10T14:39:11.130Z,39.53
2019-05-10T14:43:17.812Z,35.97
2019-05-10T14:47:24.131Z,33.03
2019-05-10T14:51:43.994Z,39.13
2019-05-10T14:55:37.842Z,33.70
2019-05-10T14:59:44.092Z,37.63
2019-05-10T15:03:49.892Z,32.40
2019-05-10T15:07:57.095Z,34.77
2019-05-10T15:12:03.360Z,35.37
2019-05-10T15:16:13.139Z,40.93
2019-05-10T15:20:18.054Z,42.67
2019-05-10T15:24:24.442Z,40.50
2019-05-10T15:28:34.596Z,37.97
2019-05-10T15:32:37.881Z,44.97
2019-05-10T15:36:44.530Z,37.70
2019-05-10T15:40:51.870Z,39.37
2019-05-10T15:44:58.061Z,40.63
2019-05-10T15:49:04.994Z,41.90
2019-05-10T15:53:11.036Z,40.40
2019-05-10T15:57:20.221Z,42.03
2019-05-10T16:01:26.901Z,39.63
2019-05-10T16:06:00.342Z,38.17
2019-05-10T16:10:01.803Z,37.43
2019-05-10T16:14:10.364Z,44.80
2019-05-10T16:18:17.800Z,40.37
2019-05-10T16:22:25.388Z,39.97
2019-05-10T16:26:31.571Z,39.27
2019-05-10T16:30:40.225Z,48.73
2019-05-10T16:34:45.942Z,39.20
2019-05-10T16:38:53.100Z,38.97
2019-05-10T16:43:00.479Z,40.37
2019-05-10T16:47:11.472Z,43.83
2019-05-10T16:51:20.645Z,37.83
2019-05-10T16:55:26.423Z,37.17
2019-05-10T16:59:35.061Z,36.57
2019-05-10T17:04:01.539Z,38.47
2019-05-10T17:08:08.076Z,33.70
2019-05-10T17:16:30.175Z,46.27
2019-05-10T17:20:36.193Z,38.57
2019-05-10T17:24:42.482Z,35.27
2019-05-10T17:28:49.351Z,36.73
2019-05-10T17:32:57.696Z,33.80
2019-05-10T17:37:04.219Z,29.30
2019-05-10T17:41:32.606Z,35.67
2019-05-10T17:45:40.450Z,36.73
2019-05-10T17:49:50.845Z,36.90
2019-05-10T17:54:01.471Z,32.10
2019-05-10T17:58:04.994Z,31.03
2019-05-10T18:02:11.164Z,32.27
2019-05-10T18:06:24.170Z,32.73
2019-05-10T18:10:29.020Z,32.23
2019-05-10T18:14:37.715Z,36.10
2019-05-10T18:18:47.271Z,31.47
2019-05-10T18:22:54.325Z,36.70
2019-05-10T18:27:05.224Z,38.47
2019-05-10T18:31:12.295Z,32.57
2019-05-10T18:35:18.581Z,36.00
2019-05-10T18:39:24.237Z,29.53
2019-05-10T18:43:35.295Z,36.27
2019-05-10T18:47:40.310Z,33.47
2019-05-10T18:51:49.537Z,39.87
2019-05-10T18:55:55.848Z,37.53
2019-05-10T19:00:05.779Z,36.37
2019-05-10T19:04:14.547Z,37.60
2019-05-10T19:08:25.565Z,40.20
2019-05-10T19:12:32.195Z,39.13
2019-05-10T19:16:43.067Z,38.83
2019-05-10T19:20:53.377Z,41.57
2019-05-10T19:25:10.845Z,39.63
2019-05-10T19:29:06.831Z,36.90
2019-05-10T19:33:14.357Z,37.90
2019-05-10T19:37:30.120Z,49.70
2019-05-10T19:41:31.385Z,39.10
2019-05-10T19:45:39.574Z,38.10
2019-05-10T19:49:51.582Z,42.83
2019-05-10T19:53:57.087Z,38.73
2019-05-10T19:58:03.756Z,43.33
2019-05-10T20:02:09.524Z,39.50
2019-05-10T20:06:17.925Z,39.87
2019-05-10T20:10:24.205Z,43.70
2019-05-10T20:14:30.094Z,42.73
2019-05-10T20:18:37.346Z,44.00
2019-05-10T20:22:44.842Z,43.27
2019-05-10T20:26:50.639Z,45.23
2019-05-10T20:30:57.398Z,47.00
2019-05-10T20:35:03.884Z,49.50
2019-05-10T20:39:10.811Z,50.20
2019-05-10T20:43:19.071Z,48.67
2019-05-10T20:47:26.497Z,49.73
2019-05-10T20:51:33.249Z,48.60
2019-05-10T20:55:39.563Z,49.63
2019-05-10T20:59:45.758Z,46.37
2019-05-10T21:07:57.880Z,46.80
2019-05-10T21:12:06.015Z,47.53
2019-05-10T21:20:22.658Z,49.20
2019-05-10T21:24:28.176Z,50.30
2019-05-10T21:28:35.557Z,55.13
2019-05-10T21:32:41.225Z,57.27
2019-05-10T21:36:47.197Z,54.13
2019-05-10T21:40:55.071Z,58.57
2019-05-10T21:45:03.264Z,62.30
2019-05-10T21:49:11.108Z,56.60
2019-05-10T21:53:21.805Z,60.50
2019-05-10T21:57:29.024Z,60.70
2019-05-10T22:01:36.877Z,60.33
2019-05-10T22:05:43.230Z,66.50
2019-05-10T22:09:49.755Z,61.63
2019-05-10T22:13:55.412Z,67.13
2019-05-10T22:18:02.347Z,69.87
2019-05-10T22:22:08.707Z,69.13
2019-05-10T22:26:19.072Z,77.07
2019-05-10T22:30:26.775Z,70.80
2019-05-10T22:34:33.663Z,69.10
2019-05-10T22:38:39.633Z,74.70
2019-05-10T22:42:45.341Z,74.87
2019-05-10T22:46:51.551Z,72.57
2019-05-10T22:51:22.877Z,74.77
2019-05-10T22:55:29.263Z,71.97
2019-05-10T22:59:35.803Z,66.37
2019-05-10T23:04:23.463Z,66.27
2019-05-10T23:08:30.551Z,70.27
2019-05-10T23:12:37.999Z,72.40
2019-05-10T23:16:43.357Z,68.73
2019-05-10T23:20:49.675Z,72.77
2019-05-10T23:25:00.103Z,72.53
2019-05-10T23:29:06.499Z,69.17
2019-05-10T23:33:12.400Z,65.80
2019-05-10T23:37:18.467Z,66.53
2019-05-10T23:41:25.253Z,64.90
2019-05-10T23:45:31.785Z,66.73
2019-05-10T23:49:38.127Z,63.43
2019-05-10T23:53:48.115Z,50.67
2019-05-10T23:57:55.138Z,57.40
